Terminal Aerodrome Forecast
Issued by NWS

Home | Current Version | Previous Version | Text Only | Print | Product List | Glossary On
Versions: 1 2 3 4 5 6 7 8 9 10 11 12 13 14 15 16 17
049
FTUS43 KDLH 262320
TAFHYR
TAF
KHYR 262320Z 2700/2724 23004KT P6SM SCT060 BKN120
     FM270300 VRB03KT P6SM VCTS SCT050CB BKN100
     FM270900 VRB02KT P6SM VCTS SCT040CB BKN080
     FM271600 05007KT P6SM VCSH SCT030 OVC050=

USA.gov is the U.S. government's official web portal to all federal, state and local government web resources and services.